Forest Hills, New York
Current Conditions -  °F | °C
As of 10:51 AM on Saturday 25 Oct 2014 (Local Time) from KLGA Reporting Station
Few Clouds Few Clouds  
Wind Chill: 58°   Ceiling: Unl
Heat Index: 58°   Visibility: 10mi
Dew Point: 39°   Wind: 9mph
Humidity: 49%   Direction: 260°W
Pressure: 29.84"   Gusts: NA
Location:  40.72°N, 73.85°W
Report Text: KLGA 251451Z 26008KT 10SM FEW250 14/04 A2984 RMK AO2 SLP105 T01440039 56007
Loading
Personal Weather Stations






























Interactive Weather Map
Tropical Storm Tracking
New forecast layout! Learn more

10-Day Weather Forecast

Advertisements
Track Severe Weather on mobile